• Join FlightAware (Why Join?)
  • Login
  • US Flag 
08:07AM EDT


 

Airport Tracker/Info


-or-


 

Live Flight TrackerFlight Track Log ✈ EJA122 ✈ 10-Jun-2013 ✈ KRIL - KBUR

Flight Track Log - Related Links

Times and Time Zones

All times are in EDT time to prevent confusion due to time zone crossing. See the EJA122 flight status page for this flight to view local times or setup timezone preferences in your user account.

Time Position Orientation Groundspeed Altitude Reporting Facility
EDT Latitude Longitude Course Direction KTS MPH feet Rate Location/Type
09:57AM 39.5264 -107.7153 270° West 11 13 5,500  Level Denver Center
09:58AM 39.5264 -107.7156 270° West 7 8 5,500 540 Level Denver Center
09:59AM 39.5239 -107.7756 267° West 115 132 6,700 2,160 Climbing Denver Center
10:00AM 39.5081 -107.8414 253° West 178 205 10,000 2,640 Climbing Denver Center
10:01AM 39.4778 -107.8981 235° Southwest 198 228 12,200 1,680 Climbing Denver Center
10:02AM 39.4350 -107.9914 239° Southwest 288 331 13,500 1,740 Climbing Denver Center
10:03AM 39.4006 -108.0931 246° West 314 361 15,800 1,800 Climbing Denver Center
10:04AM 39.3678 -108.2114 250° West 325 374 17,300 1,440 Climbing Denver Center
10:05AM 39.3269 -108.3175 244° Southwest 352 405 18,800 1,500 Climbing Denver Center
10:06AM 39.2867 -108.4256 244° Southwest 316 364 20,400 1,560 Climbing Denver Center
10:07AM 39.2450 -108.5425 245° Southwest 333 383 22,100 1,560 Climbing Denver Center
10:08AM 39.2033 -108.6494 243° Southwest 336 387 23,600 1,380 Climbing Denver Center
10:09AM 39.1661 -108.7519 245° Southwest 338 389 25,000 1,500 Climbing Denver Center
10:10AM 39.1194 -108.8753 244° Southwest 342 394 26,700 1,500 Climbing Denver Center
10:11AM 39.0797 -108.9808 244° Southwest 342 394 28,100 1,380 Climbing Denver Center
10:12AM 39.0342 -109.1033 244° Southwest 341 392 29,600 1,260 Climbing Denver Center
10:13AM 38.9931 -109.2097 244° Southwest 344 396 30,800 1,020 Climbing Denver Center
10:14AM 38.9539 -109.3158 245° Southwest 343 395 31,700 720 Climbing Denver Center
10:16AM 38.9036 -109.4464 244° Southwest 366 421 32,300 480 Climbing Denver Center
10:17AM 38.8594 -109.5631 244° Southwest 377 434 32,800 480 Climbing Denver Center
10:18AM 38.7975 -109.7211 243° Southwest 388 447 33,500 480 Climbing Denver Center
10:19AM 38.7514 -109.8436 244° Southwest 397 457 34,000 480 Climbing Denver Center
10:19AM 38.7208 -109.9264 245° Southwest 399 459 34,300 600 Climbing Salt Lake Center
10:20AM 38.6650 -110.0692 243° Southwest 402 463 35,000 540 Climbing Salt Lake Center
10:21AM 38.6178 -110.1925 244° Southwest 403 464 35,500 480 Climbing Salt Lake Center
10:22AM 38.5697 -110.3167 244° Southwest 406 467 36,000 480 Climbing Salt Lake Center
10:23AM 38.5447 -110.3769 242° Southwest 405 466 36,200 540 Climbing Denver Center
10:24AM 38.4869 -110.5203 243° Southwest 406 467 36,800 480 Climbing Denver Center
10:25AM 38.4386 -110.6425 243° Southwest 406 467 37,300 540 Climbing Denver Center
10:26AM 38.4086 -110.7258 245° Southwest 403 464 37,700 420 Climbing Salt Lake Center
10:27AM 38.3553 -110.8411 239° Southwest 396 456 38,000 120 Climbing Salt Lake Center
10:28AM 38.3031 -110.9592 241° Southwest 393 452 38,000  Level Salt Lake Center
10:29AM 38.2486 -111.0800 240° Southwest 394 453 38,000  Level Salt Lake Center
10:30AM 38.1844 -111.2250 241° Southwest 392 451 38,000  Level Salt Lake Center
10:31AM 38.1303 -111.3439 240° Southwest 391 450 38,000  Level Salt Lake Center
10:32AM 38.0772 -111.4611 240° Southwest 385 443 38,000  Level Salt Lake Center
10:33AM 38.0233 -111.5808 240° Southwest 390 449 38,000  Level Salt Lake Center
10:34AM 37.9678 -111.7003 239° Southwest 393 452 38,000  Level Salt Lake Center
10:35AM 37.9122 -111.8211 240° Southwest 396 456 38,000  Level Salt Lake Center
10:36AM 37.8586 -111.9389 240° Southwest 389 448 38,000  Level Salt Lake Center
10:37AM 37.7947 -112.0781 240° Southwest 381 438 38,000  Level Salt Lake Center
10:38AM 37.7408 -112.1939 240° Southwest 382 440 38,000  Level Salt Lake Center
10:39AM 37.6878 -112.3056 239° Southwest 374 430 38,000  Level Salt Lake Center
10:40AM 37.6228 -112.4089 232° Southwest 375 432 38,000  Level Salt Lake Center
10:41AM 37.5561 -112.5103 230° Southwest 374 430 38,000  Level Salt Lake Center
10:42AM 37.4897 -112.6131 231° Southwest 374 430 38,000  Level Salt Lake Center
10:43AM 37.4214 -112.7161 230° Southwest 377 434 38,000  Level Salt Lake Center
10:44AM 37.3539 -112.8208 231° Southwest 380 437 38,000  Level Salt Lake Center
10:45AM 37.2878 -112.9242 231° Southwest 378 435 38,000  Level Salt Lake Center
10:46AM 37.2083 -113.0472 231° Southwest 377 434 38,000  Level Salt Lake Center
10:47AM 37.1403 -113.1497 230° Southwest 380 437 38,000  Level Salt Lake Center
10:48AM 37.0603 -113.2725 231° Southwest 380 437 38,000  Level Los Angeles Center
10:50AM 36.9411 -113.4575 231° Southwest 378 435 38,000  Level Salt Lake Center
10:51AM 36.8750 -113.5589 231° Southwest 378 435 38,000  Level Salt Lake Center
10:52AM 36.8078 -113.6586 230° Southwest 377 434 38,000  Level Salt Lake Center
10:54AM 36.7133 -113.7992 230° Southwest 379 436 38,000  Level Los Angeles Center
10:55AM 36.6461 -113.9011 231° Southwest 379 436 38,000  Level Los Angeles Center
10:56AM 36.5789 -114.0000 230° Southwest 377 434 38,000  Level Los Angeles Center
10:57AM 36.5044 -114.1094 230° Southwest 376 433 38,000  Level Los Angeles Center
10:58AM 36.4372 -114.2100 230° Southwest 377 434 38,000  Level Los Angeles Center
10:59AM 36.3711 -114.3083 230° Southwest 373 429 38,000  Level Los Angeles Center
11:00AM 36.3053 -114.4094 231° Southwest 375 432 38,000  Level Los Angeles Center
11:01AM 36.2386 -114.5069 230° Southwest 372 428 38,000 -180 Level Los Angeles Center
11:02AM 36.1708 -114.6064 230° Southwest 375 432 37,700 -540 Descending Los Angeles Center
11:03AM 36.1003 -114.7086 230° Southwest 386 444 37,000 -360 Descending Los Angeles Center
11:04AM 36.0300 -114.8128 230° Southwest 391 450 37,000  Level Los Angeles Center
11:05AM 35.9425 -114.9350 229° Southwest 392 451 37,000  Level Los Angeles Center
11:06AM 35.8683 -115.0328 227° Southwest 390 449 37,000  Level Los Angeles Center
11:07AM 35.7947 -115.1325 228° Southwest 390 449 37,000  Level Los Angeles Center
11:08AM 35.7219 -115.2339 229° Southwest 392 451 37,000  Level Los Angeles Center
11:09AM 35.6503 -115.3314 228° Southwest 386 444 37,000  Level Los Angeles Center
11:10AM 35.5772 -115.4303 228° Southwest 388 447 37,000 -540 Level Los Angeles Center
11:11AM 35.5028 -115.5294 227° Southwest 392 451 36,000 -1,380 Descending Los Angeles Center
11:12AM 35.4214 -115.6389 228° Southwest 395 455 34,200 -1,500 Descending Los Angeles Center
11:13AM 35.3489 -115.7353 227° Southwest 386 444 32,900 -1,080 Descending Los Angeles Center
11:14AM 35.2719 -115.8375 227° Southwest 404 465 32,000 -1,200 Descending Los Angeles Center
11:15AM 35.1953 -115.9364 227° Southwest 403 464 30,500 -1,560 Descending Los Angeles Center
11:16AM 35.1103 -116.0522 228° Southwest 386 444 28,800 -1,560 Descending Los Angeles Center
11:17AM 35.0319 -116.1522 226° Southwest 401 461 27,300 -1,440 Descending Los Angeles Center
11:18AM 34.9544 -116.2528 227° Southwest 407 468 25,900 -1,140 Descending Los Angeles Center
11:19AM 34.8772 -116.3547 227° Southwest 408 470 25,000 -960 Descending Los Angeles Center
11:20AM 34.8092 -116.4617 232° Southwest 400 460 24,000 -960 Descending Los Angeles Center
11:21AM 34.7839 -116.5950 257° West 404 465 23,100 -1,020 Descending Los Angeles Center
11:22AM 34.7706 -116.7350 263° West 414 476 22,000 -1,080 Descending Los Angeles Center
11:24AM 34.7550 -116.8875 263° West 380 437 21,000 -1,020 Descending Los Angeles Center
11:25AM 34.7417 -117.0211 263° West 390 449 20,000 -960 Descending Los Angeles Center
11:26AM 34.7286 -117.1517 263° West 390 449 19,100 -900 Descending Los Angeles Center
11:27AM 34.7144 -117.2800 262° West 382 440 18,200 -960 Descending Los Angeles Center
11:28AM 34.7014 -117.4092 263° West 382 440 17,200 -960 Descending Los Angeles Center
11:29AM 34.6878 -117.5389 263° West 384 442 16,300 -840 Descending Los Angeles Center
11:30AM 34.6753 -117.6600 263° West 367 422 15,500 -840 Descending Los Angeles Center
11:31AM 34.6622 -117.7769 262° West 352 405 14,600 -780 Descending Los Angeles Center
11:32AM 34.6469 -117.9267 263° West 369 425 14,000 -540 Descending Los Angeles Center
11:33AM 34.6342 -118.0428 262° West 349 402 13,500 -1,320 Descending Los Angeles Center
11:34AM 34.6094 -118.1700 257° West 356 410 11,300 -1,860 Descending Los Angeles Center
11:35AM 34.5875 -118.2614 254° West 286 329 9,700 -1,500 Descending Los Angeles Center
11:36AM 34.5686 -118.3481 255° West 268 308 8,200 -840 Descending Los Angeles Center
11:37AM 34.5322 -118.4167 237° Southwest 248 285 8,000 -720 Descending Los Angeles Center
11:38AM 34.4897 -118.4631 222° Southwest 252 290 6,800 -1,080 Descending Los Angeles Center
11:39AM 34.4272 -118.5303 222° Southwest 253 291 5,800 -900 Descending Los Angeles Center
11:40AM 34.3517 -118.5700 203° Southwest 253 291 5,000 -420 Descending Los Angeles Center
11:41AM 34.2822 -118.5886 192° South 258 297 5,000 -300 Level Los Angeles Center
11:42AM 34.2178 -118.5861 178° South 244 281 4,500 -1,020 Descending Los Angeles Center
11:43AM 34.2008 -118.5128 106° East 237 273 3,000 -1,140 Descending Los Angeles Center
11:44AM 34.1986 -118.4597 93° East 157 181 2,200 -780 Descending Los Angeles Center
11:45AM 34.1986 -118.4172 90° East 128 147 1,500 -540 Descending Los Angeles Center
11:46AM 34.1989 -118.3733 90° East 122 140 1,100 -420 Descending Los Angeles Center
11:48AM 34.2000 -118.3500 90° East  Level FlightAware Approximate
11:55AM 34.2007 -118.3587 90° East  Level Estimated